sensor_id;sensor_type;location;lat;lon;timestamp;P1;durP1;ratioP1;P2;durP2;ratioP2
8982;SDS011;20979;59.850;10.660;2023-05-10T00:02:12;6.87;;;3.37;;
8982;SDS011;20979;59.850;10.660;2023-05-10T00:05:13;7.13;;;3.63;;
8982;SDS011;20979;59.850;10.660;2023-05-10T00:13:33;10.17;;;3.97;;
8982;SDS011;20979;59.850;10.660;2023-05-10T00:16:01;7.63;;;3.47;;
8982;SDS011;20979;59.850;10.660;2023-05-10T00:18:29;8.43;;;3.80;;
8982;SDS011;20979;59.850;10.660;2023-05-10T00:20:58;7.67;;;3.00;;
8982;SDS011;20979;59.850;10.660;2023-05-10T00:23:41;9.70;;;3.67;;
8982;SDS011;20979;59.850;10.660;2023-05-10T00:26:09;8.40;;;3.67;;
8982;SDS011;20979;59.850;10.660;2023-05-10T00:37:59;6.33;;;3.40;;
8982;SDS011;20979;59.850;10.660;2023-05-10T00:40:43;8.13;;;3.63;;
8982;SDS011;20979;59.850;10.660;2023-05-10T00:49:38;7.30;;;3.40;;
8982;SDS011;20979;59.850;10.660;2023-05-10T00:52:06;5.77;;;3.13;;
8982;SDS011;20979;59.850;10.660;2023-05-10T00:54:38;8.17;;;3.13;;
8982;SDS011;20979;59.850;10.660;2023-05-10T01:06:12;11.27;;;3.27;;
8982;SDS011;20979;59.850;10.660;2023-05-10T01:11:51;8.20;;;3.50;;
8982;SDS011;20979;59.850;10.660;2023-05-10T01:14:41;6.80;;;3.30;;
8982;SDS011;20979;59.850;10.660;2023-05-10T01:35:33;5.97;;;3.23;;
8982;SDS011;20979;59.850;10.660;2023-05-10T01:41:14;5.93;;;3.20;;
8982;SDS011;20979;59.850;10.660;2023-05-10T01:43:46;8.00;;;3.53;;
8982;SDS011;20979;59.850;10.660;2023-05-10T01:46:16;6.47;;;3.30;;
8982;SDS011;20979;59.850;10.660;2023-05-10T01:48:47;5.60;;;3.47;;
8982;SDS011;20979;59.850;10.660;2023-05-10T01:51:17;5.10;;;3.33;;
8982;SDS011;20979;59.850;10.660;2023-05-10T01:53:46;6.23;;;3.57;;
8982;SDS011;20979;59.850;10.660;2023-05-10T01:59:28;8.07;;;3.40;;
8982;SDS011;20979;59.850;10.660;2023-05-10T02:01:57;8.53;;;3.70;;
8982;SDS011;20979;59.850;10.660;2023-05-10T02:04:25;6.40;;;3.63;;
8982;SDS011;20979;59.850;10.660;2023-05-10T02:06:54;5.53;;;3.40;;
8982;SDS011;20979;59.850;10.660;2023-05-10T02:09:22;8.23;;;3.13;;
8982;SDS011;20979;59.850;10.660;2023-05-10T02:11:50;5.20;;;3.60;;
8982;SDS011;20979;59.850;10.660;2023-05-10T02:14:18;6.83;;;3.50;;
8982;SDS011;20979;59.850;10.660;2023-05-10T02:16:46;7.03;;;3.70;;
8982;SDS011;20979;59.850;10.660;2023-05-10T02:19:13;7.23;;;3.50;;
8982;SDS011;20979;59.850;10.660;2023-05-10T02:21:42;7.97;;;3.50;;
8982;SDS011;20979;59.850;10.660;2023-05-10T02:24:11;8.50;;;4.17;;
8982;SDS011;20979;59.850;10.660;2023-05-10T02:26:40;10.63;;;3.70;;
8982;SDS011;20979;59.850;10.660;2023-05-10T02:29:08;4.47;;;3.30;;
8982;SDS011;20979;59.850;10.660;2023-05-10T02:31:39;8.03;;;3.37;;
8982;SDS011;20979;59.850;10.660;2023-05-10T02:34:08;6.57;;;3.10;;
8982;SDS011;20979;59.850;10.660;2023-05-10T02:36:37;9.47;;;3.90;;
8982;SDS011;20979;59.850;10.660;2023-05-10T02:39:06;6.47;;;3.57;;
8982;SDS011;20979;59.850;10.660;2023-05-10T02:41:36;7.30;;;3.50;;
8982;SDS011;20979;59.850;10.660;2023-05-10T02:44:04;6.43;;;3.43;;
8982;SDS011;20979;59.850;10.660;2023-05-10T02:46:36;7.03;;;3.67;;
8982;SDS011;20979;59.850;10.660;2023-05-10T02:49:04;5.43;;;3.50;;
8982;SDS011;20979;59.850;10.660;2023-05-10T02:51:32;8.23;;;3.93;;
8982;SDS011;20979;59.850;10.660;2023-05-10T02:54:04;6.10;;;3.50;;
8982;SDS011;20979;59.850;10.660;2023-05-10T02:56:34;6.87;;;3.80;;
8982;SDS011;20979;59.850;10.660;2023-05-10T02:59:06;6.43;;;3.47;;
8982;SDS011;20979;59.850;10.660;2023-05-10T03:01:35;5.93;;;3.70;;
8982;SDS011;20979;59.850;10.660;2023-05-10T03:04:02;8.17;;;3.70;;
8982;SDS011;20979;59.850;10.660;2023-05-10T03:06:30;7.37;;;3.93;;
8982;SDS011;20979;59.850;10.660;2023-05-10T03:08:58;5.73;;;3.40;;
8982;SDS011;20979;59.850;10.660;2023-05-10T03:11:28;7.23;;;3.70;;
8982;SDS011;20979;59.850;10.660;2023-05-10T03:14:02;8.57;;;3.77;;
8982;SDS011;20979;59.850;10.660;2023-05-10T03:16:34;7.77;;;3.83;;
8982;SDS011;20979;59.850;10.660;2023-05-10T03:19:05;7.23;;;3.50;;
8982;SDS011;20979;59.850;10.660;2023-05-10T03:21:34;6.93;;;3.60;;
8982;SDS011;20979;59.850;10.660;2023-05-10T03:24:05;9.57;;;3.57;;
8982;SDS011;20979;59.850;10.660;2023-05-10T03:26:34;4.63;;;3.40;;
8982;SDS011;20979;59.850;10.660;2023-05-10T03:29:01;5.47;;;3.70;;
8982;SDS011;20979;59.850;10.660;2023-05-10T03:31:29;6.50;;;3.63;;
8982;SDS011;20979;59.850;10.660;2023-05-10T03:33:58;7.47;;;3.53;;
8982;SDS011;20979;59.850;10.660;2023-05-10T03:36:25;7.77;;;3.80;;
8982;SDS011;20979;59.850;10.660;2023-05-10T03:38:53;5.50;;;3.50;;
8982;SDS011;20979;59.850;10.660;2023-05-10T03:41:20;8.73;;;4.10;;
8982;SDS011;20979;59.850;10.660;2023-05-10T03:43:48;6.37;;;3.63;;
8982;SDS011;20979;59.850;10.660;2023-05-10T03:46:15;6.63;;;3.63;;
8982;SDS011;20979;59.850;10.660;2023-05-10T03:48:43;8.43;;;3.53;;
8982;SDS011;20979;59.850;10.660;2023-05-10T03:51:12;9.90;;;4.23;;
8982;SDS011;20979;59.850;10.660;2023-05-10T03:53:39;5.43;;;3.90;;
8982;SDS011;20979;59.850;10.660;2023-05-10T03:56:06;5.67;;;3.97;;
8982;SDS011;20979;59.850;10.660;2023-05-10T03:58:34;7.03;;;3.57;;
8982;SDS011;20979;59.850;10.660;2023-05-10T04:01:02;5.57;;;3.57;;
8982;SDS011;20979;59.850;10.660;2023-05-10T04:03:29;4.93;;;3.50;;
8982;SDS011;20979;59.850;10.660;2023-05-10T04:05:59;5.73;;;3.80;;
8982;SDS011;20979;59.850;10.660;2023-05-10T04:08:28;7.10;;;3.53;;
8982;SDS011;20979;59.850;10.660;2023-05-10T04:11:04;6.87;;;3.50;;
8982;SDS011;20979;59.850;10.660;2023-05-10T04:13:32;4.10;;;3.43;;
8982;SDS011;20979;59.850;10.660;2023-05-10T04:16:00;4.60;;;3.20;;
8982;SDS011;20979;59.850;10.660;2023-05-10T04:18:27;6.90;;;3.70;;
8982;SDS011;20979;59.850;10.660;2023-05-10T04:20:57;4.77;;;3.40;;
8982;SDS011;20979;59.850;10.660;2023-05-10T04:26:13;9.93;;;3.50;;
8982;SDS011;20979;59.850;10.660;2023-05-10T04:28:40;3.50;;;3.10;;
8982;SDS011;20979;59.850;10.660;2023-05-10T04:31:08;5.80;;;3.30;;
8982;SDS011;20979;59.850;10.660;2023-05-10T04:33:36;5.87;;;3.47;;
8982;SDS011;20979;59.850;10.660;2023-05-10T04:36:04;7.13;;;2.93;;
8982;SDS011;20979;59.850;10.660;2023-05-10T04:38:32;7.77;;;3.50;;
8982;SDS011;20979;59.850;10.660;2023-05-10T04:41:15;4.20;;;3.10;;
8982;SDS011;20979;59.850;10.660;2023-05-10T04:43:46;6.00;;;3.13;;
8982;SDS011;20979;59.850;10.660;2023-05-10T04:49:19;6.43;;;3.17;;
8982;SDS011;20979;59.850;10.660;2023-05-10T04:52:04;5.83;;;3.40;;
8982;SDS011;20979;59.850;10.660;2023-05-10T04:54:54;6.27;;;3.40;;
8982;SDS011;20979;59.850;10.660;2023-05-10T04:57:24;5.63;;;3.30;;
8982;SDS011;20979;59.850;10.660;2023-05-10T04:59:54;4.67;;;3.50;;
8982;SDS011;20979;59.850;10.660;2023-05-10T05:08:15;5.10;;;3.00;;
8982;SDS011;20979;59.850;10.660;2023-05-10T05:10:43;4.13;;;3.33;;
8982;SDS011;20979;59.850;10.660;2023-05-10T05:13:13;6.93;;;3.37;;
8982;SDS011;20979;59.850;10.660;2023-05-10T05:15:41;5.23;;;3.33;;
8982;SDS011;20979;59.850;10.660;2023-05-10T05:18:09;6.43;;;3.00;;
8982;SDS011;20979;59.850;10.660;2023-05-10T05:20:47;7.43;;;2.87;;
8982;SDS011;20979;59.850;10.660;2023-05-10T05:23:14;4.77;;;2.80;;
8982;SDS011;20979;59.850;10.660;2023-05-10T05:25:50;3.97;;;3.00;;
8982;SDS011;20979;59.850;10.660;2023-05-10T05:28:33;6.20;;;3.00;;
8982;SDS011;20979;59.850;10.660;2023-05-10T05:31:21;4.30;;;3.00;;
8982;SDS011;20979;59.850;10.660;2023-05-10T05:34:09;6.03;;;2.87;;
8982;SDS011;20979;59.850;10.660;2023-05-10T05:36:37;3.40;;;2.70;;
8982;SDS011;20979;59.850;10.660;2023-05-10T05:39:24;4.37;;;2.50;;
8982;SDS011;20979;59.850;10.660;2023-05-10T05:41:52;4.90;;;2.97;;
8982;SDS011;20979;59.850;10.660;2023-05-10T05:44:21;4.17;;;2.70;;
8982;SDS011;20979;59.850;10.660;2023-05-10T05:46:49;4.53;;;2.90;;
8982;SDS011;20979;59.850;10.660;2023-05-10T05:49:17;6.73;;;2.70;;
8982;SDS011;20979;59.850;10.660;2023-05-10T05:55:10;2.93;;;2.30;;
8982;SDS011;20979;59.850;10.660;2023-05-10T05:57:38;3.87;;;2.77;;
8982;SDS011;20979;59.850;10.660;2023-05-10T06:00:09;6.53;;;2.50;;
8982;SDS011;20979;59.850;10.660;2023-05-10T06:06:03;4.47;;;2.70;;
8982;SDS011;20979;59.850;10.660;2023-05-10T06:08:31;4.93;;;2.50;;
8982;SDS011;20979;59.850;10.660;2023-05-10T06:10:59;4.03;;;2.53;;
8982;SDS011;20979;59.850;10.660;2023-05-10T06:13:26;4.20;;;2.70;;
8982;SDS011;20979;59.850;10.660;2023-05-10T06:15:58;4.50;;;2.70;;
8982;SDS011;20979;59.850;10.660;2023-05-10T06:18:26;4.30;;;2.60;;
8982;SDS011;20979;59.850;10.660;2023-05-10T06:20:53;5.30;;;2.57;;
8982;SDS011;20979;59.850;10.660;2023-05-10T06:23:21;5.57;;;2.97;;
8982;SDS011;20979;59.850;10.660;2023-05-10T06:25:48;5.77;;;2.70;;
8982;SDS011;20979;59.850;10.660;2023-05-10T06:28:16;7.30;;;2.67;;
8982;SDS011;20979;59.850;10.660;2023-05-10T06:30:43;5.10;;;2.40;;
8982;SDS011;20979;59.850;10.660;2023-05-10T06:33:12;4.80;;;2.87;;
8982;SDS011;20979;59.850;10.660;2023-05-10T06:35:41;4.87;;;2.70;;
8982;SDS011;20979;59.850;10.660;2023-05-10T06:40:54;2.50;;;2.27;;
8982;SDS011;20979;59.850;10.660;2023-05-10T06:43:21;3.90;;;2.50;;
8982;SDS011;20979;59.850;10.660;2023-05-10T06:45:50;3.73;;;2.50;;
8982;SDS011;20979;59.850;10.660;2023-05-10T06:54:59;3.40;;;2.50;;
8982;SDS011;20979;59.850;10.660;2023-05-10T07:03:16;2.67;;;2.30;;
8982;SDS011;20979;59.850;10.660;2023-05-10T07:12:12;4.67;;;2.67;;
8982;SDS011;20979;59.850;10.660;2023-05-10T07:18:03;3.50;;;2.40;;
8982;SDS011;20979;59.850;10.660;2023-05-10T07:20:32;5.37;;;2.83;;
8982;SDS011;20979;59.850;10.660;2023-05-10T07:26:26;4.90;;;2.53;;
8982;SDS011;20979;59.850;10.660;2023-05-10T08:22:00;3.60;;;2.58;;
8982;SDS011;20979;59.850;10.660;2023-05-10T08:24:51;3.97;;;2.67;;
8982;SDS011;20979;59.850;10.660;2023-05-10T08:33:37;2.60;;;2.28;;
8982;SDS011;20979;59.850;10.660;2023-05-10T08:48:24;5.35;;;2.40;;
8982;SDS011;20979;59.850;10.660;2023-05-10T08:51:56;4.47;;;2.30;;
8982;SDS011;20979;59.850;10.660;2023-05-10T09:09:46;2.97;;;2.67;;
8982;SDS011;20979;59.850;10.660;2023-05-10T09:12:16;3.53;;;2.42;;
8982;SDS011;20979;59.850;10.660;2023-05-10T09:14:46;3.40;;;2.38;;
8982;SDS011;20979;59.850;10.660;2023-05-10T09:17:31;3.97;;;2.53;;
8982;SDS011;20979;59.850;10.660;2023-05-10T09:20:03;3.95;;;2.80;;
8982;SDS011;20979;59.850;10.660;2023-05-10T10:40:48;5.32;;;2.70;;
8982;SDS011;20979;59.850;10.660;2023-05-10T11:48:55;3.95;;;2.53;;
8982;SDS011;20979;59.850;10.660;2023-05-10T11:51:25;3.40;;;2.40;;
8982;SDS011;20979;59.850;10.660;2023-05-10T11:53:54;5.35;;;2.83;;
8982;SDS011;20979;59.850;10.660;2023-05-10T11:56:21;3.88;;;2.60;;
8982;SDS011;20979;59.850;10.660;2023-05-10T11:58:54;2.88;;;2.47;;
8982;SDS011;20979;59.850;10.660;2023-05-10T12:01:22;4.10;;;2.70;;
8982;SDS011;20979;59.850;10.660;2023-05-10T12:03:50;4.18;;;2.83;;
8982;SDS011;20979;59.850;10.660;2023-05-10T12:06:25;3.38;;;2.80;;
8982;SDS011;20979;59.850;10.660;2023-05-10T12:08:54;3.83;;;2.40;;
8982;SDS011;20979;59.850;10.660;2023-05-10T12:11:24;3.17;;;2.60;;
8982;SDS011;20979;59.850;10.660;2023-05-10T12:13:52;5.28;;;3.03;;
8982;SDS011;20979;59.850;10.660;2023-05-10T12:16:38;2.97;;;2.55;;
8982;SDS011;20979;59.850;10.660;2023-05-10T12:19:25;5.05;;;2.88;;
8982;SDS011;20979;59.850;10.660;2023-05-10T12:21:54;4.47;;;2.75;;
8982;SDS011;20979;59.850;10.660;2023-05-10T12:24:25;5.10;;;2.72;;
8982;SDS011;20979;59.850;10.660;2023-05-10T12:27:19;3.85;;;2.42;;
8982;SDS011;20979;59.850;10.660;2023-05-10T12:29:58;4.50;;;2.60;;
8982;SDS011;20979;59.850;10.660;2023-05-10T12:32:36;2.95;;;2.53;;
8982;SDS011;20979;59.850;10.660;2023-05-10T12:35:05;3.60;;;2.45;;
8982;SDS011;20979;59.850;10.660;2023-05-10T12:37:36;3.38;;;2.63;;
8982;SDS011;20979;59.850;10.660;2023-05-10T12:40:07;4.47;;;2.40;;
8982;SDS011;20979;59.850;10.660;2023-05-10T12:42:38;4.25;;;2.70;;
8982;SDS011;20979;59.850;10.660;2023-05-10T12:45:06;2.97;;;2.40;;
8982;SDS011;20979;59.850;10.660;2023-05-10T12:47:35;3.50;;;2.55;;
8982;SDS011;20979;59.850;10.660;2023-05-10T12:50:31;3.30;;;2.50;;
8982;SDS011;20979;59.850;10.660;2023-05-10T12:53:00;4.72;;;2.60;;
8982;SDS011;20979;59.850;10.660;2023-05-10T12:55:28;8.77;;;2.60;;
8982;SDS011;20979;59.850;10.660;2023-05-10T12:58:09;3.80;;;2.67;;
8982;SDS011;20979;59.850;10.660;2023-05-10T13:00:51;4.28;;;2.30;;
8982;SDS011;20979;59.850;10.660;2023-05-10T13:15:59;4.88;;;2.80;;
8982;SDS011;20979;59.850;10.660;2023-05-10T13:18:27;3.05;;;2.17;;
8982;SDS011;20979;59.850;10.660;2023-05-10T13:21:17;3.08;;;2.53;;
8982;SDS011;20979;59.850;10.660;2023-05-10T13:23:45;3.67;;;2.38;;
8982;SDS011;20979;59.850;10.660;2023-05-10T13:27:37;4.03;;;2.60;;
8982;SDS011;20979;59.850;10.660;2023-05-10T13:32:29;8.15;;;2.70;;
8982;SDS011;20979;59.850;10.660;2023-05-10T13:34:56;2.90;;;2.60;;
8982;SDS011;20979;59.850;10.660;2023-05-10T13:37:24;3.00;;;2.50;;
8982;SDS011;20979;59.850;10.660;2023-05-10T13:39:51;2.67;;;2.42;;
8982;SDS011;20979;59.850;10.660;2023-05-10T13:45:17;2.75;;;2.55;;
8982;SDS011;20979;59.850;10.660;2023-05-10T13:47:57;6.32;;;2.95;;
8982;SDS011;20979;59.850;10.660;2023-05-10T13:50:29;2.95;;;2.58;;
8982;SDS011;20979;59.850;10.660;2023-05-10T14:02:04;3.40;;;2.65;;
8982;SDS011;20979;59.850;10.660;2023-05-10T14:04:38;4.85;;;2.42;;
8982;SDS011;20979;59.850;10.660;2023-05-10T14:07:10;2.38;;;2.13;;
8982;SDS011;20979;59.850;10.660;2023-05-10T14:13:21;4.20;;;2.55;;
8982;SDS011;20979;59.850;10.660;2023-05-10T14:37:56;2.97;;;2.63;;
8982;SDS011;20979;59.850;10.660;2023-05-10T14:43:34;3.00;;;2.80;;
8982;SDS011;20979;59.850;10.660;2023-05-10T14:58:09;3.78;;;2.78;;
8982;SDS011;20979;59.850;10.660;2023-05-10T15:00:56;3.08;;;2.45;;
8982;SDS011;20979;59.850;10.660;2023-05-10T15:03:24;4.03;;;2.55;;
8982;SDS011;20979;59.850;10.660;2023-05-10T15:05:54;4.25;;;2.50;;
8982;SDS011;20979;59.850;10.660;2023-05-10T15:21:05;2.83;;;2.50;;
8982;SDS011;20979;59.850;10.660;2023-05-10T15:23:33;2.40;;;2.20;;
8982;SDS011;20979;59.850;10.660;2023-05-10T15:26:00;4.13;;;2.60;;
8982;SDS011;20979;59.850;10.660;2023-05-10T15:32:08;3.50;;;2.65;;
8982;SDS011;20979;59.850;10.660;2023-05-10T15:37:43;4.78;;;3.00;;
8982;SDS011;20979;59.850;10.660;2023-05-10T15:40:25;4.55;;;3.13;;
8982;SDS011;20979;59.850;10.660;2023-05-10T15:43:06;2.97;;;2.60;;
8982;SDS011;20979;59.850;10.660;2023-05-10T15:51:31;3.60;;;3.25;;
8982;SDS011;20979;59.850;10.660;2023-05-10T15:56:52;4.43;;;3.20;;
8982;SDS011;20979;59.850;10.660;2023-05-10T15:59:23;3.90;;;3.50;;
8982;SDS011;20979;59.850;10.660;2023-05-10T16:02:02;4.93;;;3.15;;
8982;SDS011;20979;59.850;10.660;2023-05-10T16:04:59;3.03;;;2.78;;
8982;SDS011;20979;59.850;10.660;2023-05-10T16:07:27;3.33;;;2.83;;
8982;SDS011;20979;59.850;10.660;2023-05-10T16:09:54;7.13;;;3.97;;
8982;SDS011;20979;59.850;10.660;2023-05-10T16:12:23;4.35;;;3.03;;
8982;SDS011;20979;59.850;10.660;2023-05-10T16:15:07;6.05;;;3.10;;
8982;SDS011;20979;59.850;10.660;2023-05-10T16:17:34;4.55;;;2.55;;
8982;SDS011;20979;59.850;10.660;2023-05-10T16:20:02;4.07;;;2.38;;
8982;SDS011;20979;59.850;10.660;2023-05-10T16:22:30;5.18;;;2.80;;
8982;SDS011;20979;59.850;10.660;2023-05-10T16:24:58;2.75;;;2.55;;
8982;SDS011;20979;59.850;10.660;2023-05-10T16:27:27;4.28;;;2.70;;
8982;SDS011;20979;59.850;10.660;2023-05-10T16:29:57;4.55;;;2.70;;
8982;SDS011;20979;59.850;10.660;2023-05-10T16:32:27;3.10;;;2.60;;
8982;SDS011;20979;59.850;10.660;2023-05-10T16:34:55;2.88;;;2.50;;
8982;SDS011;20979;59.850;10.660;2023-05-10T16:37:23;3.50;;;2.53;;
8982;SDS011;20979;59.850;10.660;2023-05-10T16:39:50;3.05;;;2.72;;
8982;SDS011;20979;59.850;10.660;2023-05-10T16:42:18;3.30;;;3.00;;
8982;SDS011;20979;59.850;10.660;2023-05-10T16:44:58;2.85;;;2.53;;
8982;SDS011;20979;59.850;10.660;2023-05-10T16:47:31;3.65;;;2.58;;
8982;SDS011;20979;59.850;10.660;2023-05-10T16:49:59;3.05;;;2.70;;
8982;SDS011;20979;59.850;10.660;2023-05-10T16:52:27;3.05;;;2.53;;
8982;SDS011;20979;59.850;10.660;2023-05-10T16:54:57;3.17;;;2.47;;
8982;SDS011;20979;59.850;10.660;2023-05-10T16:57:25;5.22;;;2.50;;
8982;SDS011;20979;59.850;10.660;2023-05-10T16:59:52;3.92;;;2.90;;
8982;SDS011;20979;59.850;10.660;2023-05-10T17:02:23;3.20;;;2.60;;
8982;SDS011;20979;59.850;10.660;2023-05-10T17:04:50;2.97;;;2.60;;
8982;SDS011;20979;59.850;10.660;2023-05-10T17:07:20;2.67;;;2.47;;
8982;SDS011;20979;59.850;10.660;2023-05-10T17:09:47;3.67;;;2.80;;
8982;SDS011;20979;59.850;10.660;2023-05-10T17:12:50;2.78;;;2.53;;
8982;SDS011;20979;59.850;10.660;2023-05-10T17:15:18;2.78;;;2.58;;
8982;SDS011;20979;59.850;10.660;2023-05-10T17:17:47;5.75;;;2.85;;
8982;SDS011;20979;59.850;10.660;2023-05-10T17:23:20;3.67;;;2.45;;
8982;SDS011;20979;59.850;10.660;2023-05-10T17:25:47;3.50;;;2.70;;
8982;SDS011;20979;59.850;10.660;2023-05-10T17:28:15;3.35;;;2.80;;
8982;SDS011;20979;59.850;10.660;2023-05-10T17:30:44;4.55;;;2.70;;
8982;SDS011;20979;59.850;10.660;2023-05-10T17:33:13;3.35;;;2.60;;
8982;SDS011;20979;59.850;10.660;2023-05-10T17:35:43;4.40;;;2.63;;
8982;SDS011;20979;59.850;10.660;2023-05-10T17:38:11;13.13;;;2.67;;
8982;SDS011;20979;59.850;10.660;2023-05-10T17:40:39;2.70;;;2.50;;
8982;SDS011;20979;59.850;10.660;2023-05-10T17:43:19;3.20;;;2.90;;
8982;SDS011;20979;59.850;10.660;2023-05-10T17:48:37;3.78;;;2.60;;
8982;SDS011;20979;59.850;10.660;2023-05-10T17:51:08;3.88;;;2.50;;
8982;SDS011;20979;59.850;10.660;2023-05-10T17:53:37;4.07;;;2.50;;
8982;SDS011;20979;59.850;10.660;2023-05-10T17:56:05;6.47;;;2.65;;
8982;SDS011;20979;59.850;10.660;2023-05-10T17:58:34;3.08;;;2.60;;
8982;SDS011;20979;59.850;10.660;2023-05-10T18:07:28;4.80;;;2.42;;
8982;SDS011;20979;59.850;10.660;2023-05-10T18:09:56;4.03;;;2.47;;
8982;SDS011;20979;59.850;10.660;2023-05-10T18:12:25;2.85;;;2.65;;
8982;SDS011;20979;59.850;10.660;2023-05-10T18:14:53;4.07;;;2.50;;
8982;SDS011;20979;59.850;10.660;2023-05-10T18:17:21;3.83;;;2.40;;
8982;SDS011;20979;59.850;10.660;2023-05-10T18:19:49;2.92;;;2.50;;
8982;SDS011;20979;59.850;10.660;2023-05-10T18:22:47;3.47;;;2.50;;
8982;SDS011;20979;59.850;10.660;2023-05-10T18:25:32;2.47;;;2.28;;
8982;SDS011;20979;59.850;10.660;2023-05-10T18:28:13;5.47;;;2.80;;
8982;SDS011;20979;59.850;10.660;2023-05-10T18:30:41;2.50;;;2.30;;
8982;SDS011;20979;59.850;10.660;2023-05-10T18:33:26;3.75;;;2.40;;
8982;SDS011;20979;59.850;10.660;2023-05-10T18:48:06;3.67;;;2.70;;
8982;SDS011;20979;59.850;10.660;2023-05-10T18:50:52;4.05;;;2.78;;
8982;SDS011;20979;59.850;10.660;2023-05-10T18:54:18;3.03;;;2.50;;
8982;SDS011;20979;59.850;10.660;2023-05-10T18:56:28;3.85;;;2.97;;
8982;SDS011;20979;59.850;10.660;2023-05-10T18:58:56;2.70;;;2.50;;
8982;SDS011;20979;59.850;10.660;2023-05-10T19:01:23;3.08;;;2.70;;
8982;SDS011;20979;59.850;10.660;2023-05-10T19:04:09;5.00;;;3.10;;
8982;SDS011;20979;59.850;10.660;2023-05-10T19:06:36;3.15;;;2.80;;
8982;SDS011;20979;59.850;10.660;2023-05-10T19:09:06;3.15;;;2.90;;
8982;SDS011;20979;59.850;10.660;2023-05-10T19:11:47;3.63;;;2.72;;
8982;SDS011;20979;59.850;10.660;2023-05-10T19:17:14;2.95;;;2.75;;
8982;SDS011;20979;59.850;10.660;2023-05-10T19:19:53;4.55;;;2.95;;
8982;SDS011;20979;59.850;10.660;2023-05-10T19:22:20;3.97;;;3.20;;
8982;SDS011;20979;59.850;10.660;2023-05-10T19:24:51;3.80;;;3.28;;
8982;SDS011;20979;59.850;10.660;2023-05-10T19:27:32;3.67;;;3.05;;
8982;SDS011;20979;59.850;10.660;2023-05-10T19:43:08;3.10;;;2.88;;
8982;SDS011;20979;59.850;10.660;2023-05-10T19:45:36;3.63;;;2.90;;
8982;SDS011;20979;59.850;10.660;2023-05-10T19:48:07;6.07;;;3.05;;
8982;SDS011;20979;59.850;10.660;2023-05-10T19:50:35;3.35;;;2.92;;
8982;SDS011;20979;59.850;10.660;2023-05-10T19:53:29;5.23;;;3.10;;
8982;SDS011;20979;59.850;10.660;2023-05-10T19:59:14;3.00;;;2.70;;
8982;SDS011;20979;59.850;10.660;2023-05-10T20:04:36;3.70;;;3.05;;
8982;SDS011;20979;59.850;10.660;2023-05-10T20:07:56;4.80;;;3.67;;
8982;SDS011;20979;59.850;10.660;2023-05-10T20:10:29;5.00;;;3.50;;
8982;SDS011;20979;59.850;10.660;2023-05-10T20:13:21;4.40;;;3.30;;
8982;SDS011;20979;59.850;10.660;2023-05-10T20:15:53;5.10;;;3.60;;
8982;SDS011;20979;59.850;10.660;2023-05-10T20:18:29;4.90;;;3.03;;
8982;SDS011;20979;59.850;10.660;2023-05-10T20:21:10;6.50;;;2.90;;
8982;SDS011;20979;59.850;10.660;2023-05-10T20:23:38;3.33;;;3.03;;
8982;SDS011;20979;59.850;10.660;2023-05-10T20:26:06;4.93;;;3.20;;
8982;SDS011;20979;59.850;10.660;2023-05-10T20:28:45;4.43;;;3.30;;
8982;SDS011;20979;59.850;10.660;2023-05-10T20:31:17;5.83;;;3.40;;
8982;SDS011;20979;59.850;10.660;2023-05-10T20:33:44;5.07;;;3.60;;
8982;SDS011;20979;59.850;10.660;2023-05-10T20:41:55;4.63;;;3.20;;
8982;SDS011;20979;59.850;10.660;2023-05-10T20:44:43;3.30;;;3.00;;
8982;SDS011;20979;59.850;10.660;2023-05-10T20:47:14;4.63;;;2.97;;
8982;SDS011;20979;59.850;10.660;2023-05-10T20:50:05;6.50;;;3.23;;
8982;SDS011;20979;59.850;10.660;2023-05-10T20:52:36;5.00;;;3.30;;
8982;SDS011;20979;59.850;10.660;2023-05-10T21:00:59;4.17;;;3.50;;
8982;SDS011;20979;59.850;10.660;2023-05-10T21:03:29;4.70;;;3.80;;
8982;SDS011;20979;59.850;10.660;2023-05-10T21:06:23;4.03;;;3.50;;
8982;SDS011;20979;59.850;10.660;2023-05-10T21:09:06;4.77;;;3.80;;
8982;SDS011;20979;59.850;10.660;2023-05-10T21:11:47;4.70;;;3.87;;
8982;SDS011;20979;59.850;10.660;2023-05-10T21:14:15;4.53;;;3.73;;
8982;SDS011;20979;59.850;10.660;2023-05-10T21:16:42;5.03;;;3.90;;
8982;SDS011;20979;59.850;10.660;2023-05-10T21:19:11;6.83;;;3.97;;
8982;SDS011;20979;59.850;10.660;2023-05-10T21:21:39;4.60;;;3.77;;
8982;SDS011;20979;59.850;10.660;2023-05-10T21:24:06;6.13;;;3.73;;
8982;SDS011;20979;59.850;10.660;2023-05-10T21:26:34;6.40;;;3.73;;
8982;SDS011;20979;59.850;10.660;2023-05-10T21:29:01;4.00;;;3.60;;
8982;SDS011;20979;59.850;10.660;2023-05-10T21:31:29;4.23;;;3.77;;
8982;SDS011;20979;59.850;10.660;2023-05-10T21:33:57;5.43;;;3.60;;
8982;SDS011;20979;59.850;10.660;2023-05-10T21:36:25;5.73;;;3.73;;
8982;SDS011;20979;59.850;10.660;2023-05-10T21:38:53;4.00;;;3.60;;
8982;SDS011;20979;59.850;10.660;2023-05-10T21:41:20;5.13;;;3.67;;
8982;SDS011;20979;59.850;10.660;2023-05-10T21:43:47;5.07;;;4.10;;
8982;SDS011;20979;59.850;10.660;2023-05-10T21:46:15;4.70;;;3.70;;
8982;SDS011;20979;59.850;10.660;2023-05-10T21:48:42;4.20;;;3.63;;
8982;SDS011;20979;59.850;10.660;2023-05-10T21:51:10;4.30;;;3.90;;
8982;SDS011;20979;59.850;10.660;2023-05-10T21:53:38;5.33;;;3.60;;
8982;SDS011;20979;59.850;10.660;2023-05-10T21:56:06;3.77;;;3.37;;
8982;SDS011;20979;59.850;10.660;2023-05-10T21:58:33;4.47;;;3.97;;
8982;SDS011;20979;59.850;10.660;2023-05-10T22:01:00;4.57;;;3.63;;
8982;SDS011;20979;59.850;10.660;2023-05-10T22:03:28;4.57;;;3.73;;
8982;SDS011;20979;59.850;10.660;2023-05-10T22:05:55;3.57;;;3.27;;
8982;SDS011;20979;59.850;10.660;2023-05-10T22:08:23;5.83;;;3.30;;
8982;SDS011;20979;59.850;10.660;2023-05-10T22:10:52;3.67;;;3.37;;
8982;SDS011;20979;59.850;10.660;2023-05-10T22:13:33;4.33;;;3.60;;
8982;SDS011;20979;59.850;10.660;2023-05-10T22:16:01;6.03;;;3.80;;
8982;SDS011;20979;59.850;10.660;2023-05-10T22:18:28;4.33;;;3.40;;
8982;SDS011;20979;59.850;10.660;2023-05-10T22:20:56;4.57;;;3.70;;
8982;SDS011;20979;59.850;10.660;2023-05-10T22:23:23;3.73;;;3.43;;
8982;SDS011;20979;59.850;10.660;2023-05-10T22:25:52;4.33;;;3.30;;
8982;SDS011;20979;59.850;10.660;2023-05-10T22:31:23;5.13;;;4.07;;
8982;SDS011;20979;59.850;10.660;2023-05-10T22:33:50;5.77;;;3.40;;
8982;SDS011;20979;59.850;10.660;2023-05-10T22:36:18;5.17;;;3.50;;
8982;SDS011;20979;59.850;10.660;2023-05-10T22:38:46;3.90;;;3.50;;
8982;SDS011;20979;59.850;10.660;2023-05-10T22:47:41;6.07;;;3.70;;
8982;SDS011;20979;59.850;10.660;2023-05-10T22:56:27;4.10;;;3.70;;
8982;SDS011;20979;59.850;10.660;2023-05-10T22:58:55;5.07;;;3.83;;
8982;SDS011;20979;59.850;10.660;2023-05-10T23:01:28;6.10;;;4.03;;
8982;SDS011;20979;59.850;10.660;2023-05-10T23:04:12;5.63;;;4.10;;
8982;SDS011;20979;59.850;10.660;2023-05-10T23:06:48;4.73;;;3.90;;
8982;SDS011;20979;59.850;10.660;2023-05-10T23:12:46;5.30;;;3.80;;
8982;SDS011;20979;59.850;10.660;2023-05-10T23:15:14;6.23;;;4.20;;
8982;SDS011;20979;59.850;10.660;2023-05-10T23:17:42;4.03;;;3.70;;
8982;SDS011;20979;59.850;10.660;2023-05-10T23:23:31;4.97;;;3.53;;
8982;SDS011;20979;59.850;10.660;2023-05-10T23:29:05;7.97;;;3.90;;
8982;SDS011;20979;59.850;10.660;2023-05-10T23:31:47;4.37;;;3.97;;
8982;SDS011;20979;59.850;10.660;2023-05-10T23:34:15;5.43;;;3.73;;
8982;SDS011;20979;59.850;10.660;2023-05-10T23:43:02;5.83;;;4.07;;
8982;SDS011;20979;59.850;10.660;2023-05-10T23:48:59;3.97;;;3.67;;
